x

Destruction Island, Wa (desw1) Weather Station

11:00 - Thu 17th Aug 2017 All times are PDT. -7 hours from GMT.

  • Wind
    9mph, 9mph gusts
  • Aire Temp 57°f
  • Sea Pressure 1023.4mb
  • Destruction Island, Wa
  • Destruction Island, Wa

More Historic Weather Station data

Upgrade to MSW Pro to gain access to the past 30 days of data for over 8000 Wavebouys and Weather Stations around the globe.

Join

Comparision Forecast

View Surf forecast
   
jue 08/17 11:00 9 9 mph 1023.4mb 57f
10:00 8 8 mph 1023.2mb 56f
9:00 8 8 mph 1023mb 56f
8:00 10 11 mph 1022.8mb 54f
7:00 13 13 mph 1022.1mb 55f
6:00 13 13 mph 1021.7mb 55f
5:00 11 11 mph 1021.7mb 55f
4:00 11 13 mph 1021.5mb 55f
3:00 16 16 mph 1021.5mb 55f
2:00 17 17 mph 1021.3mb 56f
1:00 18 18 mph 1021.1mb 55f
12:00 15 15 mph 1021.1mb 55f
mié 08/16 11:00 16 16 mph 1021.1mb 56f
10:00 15 16 mph 1020.9mb 56f
9:00 15 16 mph 1020.6mb 56f
8:00 13 14 mph 1020.6mb 56f
7:00 9 9 mph 1020.6mb 57f
6:00 13 14 mph 1020.6mb 57f
5:00 9 9 mph 1020.8mb 60f
4:00 6 7 mph 1020.9mb 62f
3:00 5 6 mph 1021mb 64f
2:00 2 2 mph 1021.2mb 62f
1:00 3 3 mph 1021.1mb 61f
12:00 2 2 mph 1020.9mb 59f
11:00 3 3 mph 1020.8mb 59f
10:00 3 3 mph 1020.5mb 57f
9:00 7 7 mph 1020.5mb 57f
8:00 10 11 mph 1020.2mb 56f
7:00 11 13 mph 1019.8mb 56f
6:00 14 14 mph 1019.2mb 56f
5:00 15 15 mph 1019mb 56f
4:00 13 14 mph 1019mb 56f
3:00 11 11 mph 1018.8mb 56f
2:00 13 14 mph 1018.6mb 57f
1:00 10 11 mph 1018.5mb 56f
12:00 13 13 mph 1018.5mb 56f
mar 08/15 11:00 13 14 mph 1018.5mb 56f
10:00 14 14 mph 1018.1mb 57f
9:00 20 21 mph 1017.7mb 57f
8:00 22 23 mph 1017.2mb 57f
7:00 21 22 mph 1017.1mb 57f
6:00 22 24 mph 1016.9mb 57f
5:00 21 23 mph 1016.9mb 58f
4:00 20 22 mph 1016.9mb 58f
3:00 20 22 mph 1017mb 59f
2:00 16 17 mph 1016.6mb 59f
1:00 14 15 mph 1016.7mb 58f
12:00 16 17 mph 1016.5mb 58f
11:00 11 14 mph 1016.3mb 57f
10:00 8 9 mph 1016mb 56f
9:00 13 14 mph 1015.8mb 55f
8:00 10 11 mph 1015mb 54f
7:00 13 14 mph 1015mb 54f
6:00 16 17 mph 1014.7mb 54f
5:00 14 14 mph 1014.4mb 55f
4:00 11 11 mph 1014mb 55f
3:00 13 13 mph 1014.4mb 55f
2:00 13 13 mph 1014.3mb 55f
1:00 14 14 mph 1014.4mb 55f
12:00 13 14 mph 1014.2mb 55f
lun 08/14 11:00 13 14 mph 1014.2mb 55f
10:00 17 17 mph 1014.5mb 55f
9:00 17 20 mph 1014.6mb 56f
8:00 15 17 mph 1014.7mb 56f
7:00 14 16 mph 1014.9mb 57f
6:00 15 16 mph 1015.1mb 58f
4:00 16 16 mph 1015.7mb 58f
3:00 11 13 mph 1016.3mb 60f
2:00 6 9 mph 1016.8mb 61f
1:00 5 6 mph 1017.1mb 59f
12:00 2 3 mph 1017.5mb 59f
11:00  -  0 mph 1017.4mb 57f
10:00 1 2 mph 1017.4mb 56f
9:00 1 2 mph 1017.5mb 54f
8:00 6 6 mph 1017.3mb 53f
7:00 5 5 mph 1017.3mb 52f
6:00 3 3 mph 1017.2mb 53f
5:00 5 5 mph 1017.2mb 53f
4:00 3 3 mph 1017.8mb 53f
3:00 3 3 mph 1018.1mb 54f
2:00 1 2 mph 1018mb 54f
1:00 6 6 mph 1018.2mb 55f
12:00 7 7 mph 1018.5mb 55f
dom 08/13 11:00 9 9 mph 1018.8mb 56f
10:00 10 10 mph 1018.7mb 57f
9:00 13 14 mph 1018.6mb 57f
8:00 13 14 mph 1018.5mb 57f